Time;durP1;ratioP1;P1;durP2;ratioP2;P2;SDS_P1;SDS_P2;PMS_P1;PMS_P2;Temp;Humidity;BMP_temperature;BMP_pressure;BME280_temperature;BME280_humidity;BME280_pressure;Samples;Min_cycle;Max_cycle;Signal;HPM_P1;HPM_P2
2022/06/22 00:02:04;;;;;;;16.15;7.57;;;;;;;;;;5014286;28;96961;-75
2022/06/22 00:04:48;;;;;;;15.68;6.78;;;;;;;;;;5011567;28;95353;-74
2022/06/22 00:07:21;;;;;;;13.63;7.00;;;;;;;;;;5013608;28;96783;-75
2022/06/22 00:09:52;;;;;;;11.38;7.10;;;;;;;;;;5012456;28;97028;-74
2022/06/22 00:12:21;;;;;;;15.68;6.75;;;;;;;;;;5013074;28;95363;-74
2022/06/22 00:14:50;;;;;;;15.45;7.07;;;;;;;;;;5012427;28;96748;-74
2022/06/22 00:17:21;;;;;;;14.88;7.07;;;;;;;;;;5011819;28;96272;-74
2022/06/22 00:19:48;;;;;;;11.40;7.10;;;;;;;;;;5010401;28;95440;-73
2022/06/22 00:22:21;;;;;;;18.15;6.82;;;;;;;;;;5011887;28;96823;-75
2022/06/22 00:25:14;;;;;;;13.45;6.97;;;;;;;;;;5015748;28;97396;-74
2022/06/22 00:27:41;;;;;;;14.02;6.57;;;;;;;;;;5010363;28;96878;-74
2022/06/22 00:30:13;;;;;;;9.70;6.22;;;;;;;;;;5012554;28;95993;-75
2022/06/22 00:32:51;;;;;;;15.48;6.47;;;;;;;;;;5012761;28;95270;-74
2022/06/22 00:35:36;;;;;;;12.88;6.57;;;;;;;;;;5012815;28;96831;-74
2022/06/22 00:38:05;;;;;;;10.15;5.80;;;;;;;;;;5012170;28;97712;-74
2022/06/22 00:40:33;;;;;;;9.75;6.78;;;;;;;;;;5011970;28;95321;-74
2022/06/22 00:43:00;;;;;;;10.57;5.90;;;;;;;;;;5012432;28;96754;-74
2022/06/22 00:45:27;;;;;;;12.55;6.15;;;;;;;;;;5011971;28;97411;-73
2022/06/22 00:47:59;;;;;;;12.25;6.35;;;;;;;;;;5015943;28;95290;-74
2022/06/22 00:50:36;;;;;;;16.40;6.97;;;;;;;;;;5009235;28;96287;-73
2022/06/22 00:53:05;;;;;;;15.63;6.90;;;;;;;;;;5012689;28;95381;-73
2022/06/22 00:55:31;;;;;;;12.65;6.63;;;;;;;;;;5011623;28;96822;-73
2022/06/22 00:58:01;;;;;;;14.07;6.75;;;;;;;;;;5009688;28;97317;-74
2022/06/22 01:00:30;;;;;;;18.35;6.97;;;;;;;;;;5010889;28;95420;-73
2022/06/22 01:02:59;;;;;;;11.20;6.57;;;;;;;;;;5011602;28;96836;-74
2022/06/22 01:05:34;;;;;;;16.17;6.63;;;;;;;;;;5009164;28;97083;-74
2022/06/22 01:08:15;;;;;;;12.55;7.20;;;;;;;;;;5014678;28;95219;-73
2022/06/22 01:11:05;;;;;;;19.47;7.03;;;;;;;;;;5011660;28;97784;-72
2022/06/22 01:13:39;;;;;;;12.07;7.45;;;;;;;;;;4967447;28;95456;-73
2022/06/22 01:16:15;;;;;;;11.98;7.88;;;;;;;;;;5010240;28;96757;-72
2022/06/22 01:18:44;;;;;;;12.93;8.43;;;;;;;;;;5010316;28;95207;-73
2022/06/22 01:21:16;;;;;;;19.15;8.77;;;;;;;;;;5011962;28;95269;-72
2022/06/22 01:23:42;;;;;;;;;;;;;;;;;;5012244;28;96889;-73
2022/06/22 01:26:27;;;;;;;14.00;8.98;;;;;;;;;;5009915;28;127066;-72
2022/06/22 01:28:54;;;;;;;16.02;8.95;;;;;;;;;;5012359;28;95498;-73
2022/06/22 01:31:22;;;;;;;16.75;9.32;;;;;;;;;;5016906;28;96330;-73
2022/06/22 01:33:49;;;;;;;16.60;9.43;;;;;;;;;;5012458;28;95379;-72
2022/06/22 01:36:29;;;;;;;14.68;8.80;;;;;;;;;;5012228;28;96932;-72
2022/06/22 01:38:56;;;;;;;19.33;8.73;;;;;;;;;;5014425;28;97284;-73
2022/06/22 01:41:43;;;;;;;19.27;9.02;;;;;;;;;;5014630;28;95482;-73
2022/06/22 01:44:15;;;;;;;19.80;8.82;;;;;;;;;;5015008;28;96783;-72
2022/06/22 01:47:05;;;;;;;17.25;8.88;;;;;;;;;;4994307;28;97381;-71
2022/06/22 01:49:33;;;;;;;19.20;9.10;;;;;;;;;;4994752;28;95328;-71
2022/06/22 01:52:26;;;;;;;11.25;7.00;;;;;;;;;;5013748;28;96690;-72
2022/06/22 01:54:56;;;;;;;10.70;5.50;;;;;;;;;;4985239;28;96419;-71
2022/06/22 01:57:25;;;;;;;12.77;5.55;;;;;;;;;;5014051;28;96934;-72
2022/06/22 01:59:56;;;;;;;11.48;6.93;;;;;;;;;;5013966;28;96339;-72
2022/06/22 02:02:30;;;;;;;12.85;6.43;;;;;;;;;;5012691;28;95429;-72
2022/06/22 02:05:15;;;;;;;12.68;6.90;;;;;;;;;;5014219;28;95731;-72
2022/06/22 02:07:45;;;;;;;12.85;7.55;;;;;;;;;;5012018;28;96387;-72
2022/06/22 02:10:15;;;;;;;14.25;7.25;;;;;;;;;;5013552;28;95340;-72
2022/06/22 02:12:43;;;;;;;11.20;7.35;;;;;;;;;;5013943;28;96774;-72
2022/06/22 02:15:24;;;;;;;14.65;6.82;;;;;;;;;;5012416;28;96559;-72
2022/06/22 02:17:51;;;;;;;10.80;6.68;;;;;;;;;;5017440;28;95342;-72
2022/06/22 02:20:18;;;;;;;9.23;6.72;;;;;;;;;;5013416;28;97514;-71
2022/06/22 02:22:45;;;;;;;12.75;7.65;;;;;;;;;;5013328;28;95147;-71
2022/06/22 02:25:12;;;;;;;14.40;7.65;;;;;;;;;;5014014;28;96882;-71
2022/06/22 02:27:38;;;;;;;17.17;7.95;;;;;;;;;;5013554;28;97344;-71
2022/06/22 02:30:05;;;;;;;16.20;7.43;;;;;;;;;;5013518;28;95961;-73
2022/06/22 02:32:39;;;;;;;11.23;7.68;;;;;;;;;;5012161;28;95977;-73
2022/06/22 02:35:07;;;;;;;12.90;8.93;;;;;;;;;;5013720;28;97312;-74
2022/06/22 02:37:36;;;;;;;17.67;8.50;;;;;;;;;;5013568;28;95290;-73
2022/06/22 02:40:04;;;;;;;14.45;9.02;;;;;;;;;;5014565;28;97141;-73
2022/06/22 02:45:19;;;;;;;21.83;10.52;;;;;;;;;;5013473;28;96876;-73
2022/06/22 02:47:57;;;;;;;15.75;8.95;;;;;;;;;;5013634;28;97607;-72
2022/06/22 02:50:42;;;;;;;18.45;9.45;;;;;;;;;;5013452;28;95373;-72
2022/06/22 02:53:18;;;;;;;15.32;8.82;;;;;;;;;;5014064;28;96058;-73
2022/06/22 02:55:48;;;;;;;23.55;11.77;;;;;;;;;;5012437;28;96076;-71
2022/06/22 02:58:28;;;;;;;20.88;10.63;;;;;;;;;;5012647;28;95299;-72
2022/06/22 03:00:55;;;;;;;26.48;11.38;;;;;;;;;;5012865;28;96745;-71
2022/06/22 03:03:23;;;;;;;17.42;10.23;;;;;;;;;;5013391;28;97270;-73
2022/06/22 03:05:51;;;;;;;20.88;9.82;;;;;;;;;;5013221;28;96662;-72
2022/06/22 03:08:20;;;;;;;15.55;10.38;;;;;;;;;;5011201;28;96848;-72
2022/06/22 20:45:59;;;;;;;12.75;5.30;;;;;;;;;;5029956;28;95312;-73
2022/06/22 20:48:34;;;;;;;11.75;5.38;;;;;;;;;;5013291;28;97324;-75
2022/06/22 20:51:02;;;;;;;14.45;5.55;;;;;;;;;;5009589;28;96135;-74
2022/06/22 20:53:39;;;;;;;11.20;5.60;;;;;;;;;;5006013;28;96712;-74
2022/06/22 20:56:24;;;;;;;12.50;5.78;;;;;;;;;;5006301;28;97340;-75
2022/06/22 20:58:53;;;;;;;16.30;5.88;;;;;;;;;;5008925;28;95573;-74
2022/06/22 21:01:20;;;;;;;12.00;5.63;;;;;;;;;;5009038;28;96647;-74
2022/06/22 21:04:01;;;;;;;11.93;6.00;;;;;;;;;;5008784;28;97256;-74
2022/06/22 21:06:57;;;;;;;13.33;5.70;;;;;;;;;;5015063;28;95205;-75
2022/06/22 21:09:37;;;;;;;17.45;5.68;;;;;;;;;;5003329;27;97365;-73
2022/06/22 21:12:22;;;;;;;12.15;5.78;;;;;;;;;;5007199;28;95169;-74
2022/06/22 21:15:04;;;;;;;13.75;5.80;;;;;;;;;;5011963;28;96680;-73
2022/06/22 21:17:32;;;;;;;14.70;5.72;;;;;;;;;;4995731;28;97966;-75
2022/06/22 21:19:59;;;;;;;11.73;6.38;;;;;;;;;;5008916;28;95297;-74
2022/06/22 21:22:27;;;;;;;13.15;6.35;;;;;;;;;;5008349;28;96828;-74
2022/06/22 21:24:54;;;;;;;15.45;6.43;;;;;;;;;;5010866;28;97315;-73
2022/06/22 21:27:25;;;;;;;14.40;6.45;;;;;;;;;;4991275;28;95228;-73
2022/06/22 21:30:29;;;;;;;12.40;6.57;;;;;;;;;;5010883;28;95808;-73
2022/06/22 21:32:55;;;;;;;20.00;8.65;;;;;;;;;;4902385;28;95488;-74
2022/06/22 21:35:30;;;;;;;13.02;6.40;;;;;;;;;;4878554;28;96754;-74
2022/06/22 21:38:02;;;;;;;10.35;6.70;;;;;;;;;;4961102;28;97647;-74
2022/06/22 21:40:41;;;;;;;22.48;7.13;;;;;;;;;;5008073;28;96012;-73
2022/06/22 21:43:14;;;;;;;14.48;7.35;;;;;;;;;;5008698;28;96958;-73
2022/06/22 21:45:40;;;;;;;16.98;7.22;;;;;;;;;;5015843;28;96543;-73
2022/06/22 21:48:31;;;;;;;17.30;7.57;;;;;;;;;;5007867;28;95300;-74
2022/06/22 21:50:57;;;;;;;12.48;6.88;;;;;;;;;;5008306;28;96518;-74
2022/06/22 21:53:27;;;;;;;18.27;7.50;;;;;;;;;;5011343;28;97453;-73
2022/06/22 21:56:01;;;;;;;14.32;6.70;;;;;;;;;;5003841;28;96406;-73
2022/06/22 21:58:46;;;;;;;15.63;7.40;;;;;;;;;;4994668;28;97180;-75
2022/06/22 22:01:22;;;;;;;12.88;7.45;;;;;;;;;;4991425;28;95460;-74
2022/06/22 22:04:01;;;;;;;17.23;7.72;;;;;;;;;;4994831;28;97060;-73
2022/06/22 22:06:47;;;;;;;15.73;6.85;;;;;;;;;;4993923;28;97387;-74
2022/06/22 22:09:23;;;;;;;15.98;8.32;;;;;;;;;;4995193;28;95173;-74
2022/06/22 22:11:50;;;;;;;16.65;7.65;;;;;;;;;;5003234;28;97410;-73
2022/06/22 22:14:23;;;;;;;20.60;8.13;;;;;;;;;;5014499;28;97383;-74
2022/06/22 22:16:52;;;;;;;17.42;7.82;;;;;;;;;;4997117;28;95342;-75
2022/06/22 22:19:21;;;;;;;16.10;7.47;;;;;;;;;;4995546;28;97315;-75
2022/06/22 22:21:48;;;;;;;17.83;8.45;;;;;;;;;;5010510;28;95321;-74
2022/06/22 22:24:23;;;;;;;14.75;7.47;;;;;;;;;;4997265;28;95585;-74
2022/06/22 22:26:57;;;;;;;15.32;7.57;;;;;;;;;;4995556;28;97427;-74
2022/06/22 22:29:26;;;;;;;18.88;7.93;;;;;;;;;;5001108;28;95126;-74
2022/06/22 22:31:53;;;;;;;18.27;7.75;;;;;;;;;;5001177;28;96714;-74
2022/06/22 22:34:21;;;;;;;17.88;8.68;;;;;;;;;;5014295;28;97502;-74
2022/06/22 22:36:49;;;;;;;14.45;7.53;;;;;;;;;;4997356;28;95492;-74
2022/06/22 22:39:18;;;;;;;13.88;7.43;;;;;;;;;;4996977;28;97151;-73
2022/06/22 22:41:46;;;;;;;17.48;7.78;;;;;;;;;;4985727;28;95329;-73
2022/06/22 22:44:14;;;;;;;18.45;7.45;;;;;;;;;;4974460;28;96753;-75
2022/06/22 22:46:47;;;;;;;16.98;8.05;;;;;;;;;;4992429;28;97272;-75
2022/06/22 22:49:19;;;;;;;13.07;6.93;;;;;;;;;;4994828;28;95235;-74
2022/06/22 22:51:45;;;;;;;;;;;;;;;;;;4998985;28;96493;-74
2022/06/22 22:54:18;;;;;;;18.77;7.65;;;;;;;;;;4991836;28;126719;-74
2022/06/22 22:57:05;;;;;;;16.45;7.28;;;;;;;;;;4984364;28;96562;-74
2022/06/22 22:59:33;;;;;;;16.13;7.47;;;;;;;;;;4993598;28;97054;-74
2022/06/22 23:02:00;;;;;;;16.55;7.68;;;;;;;;;;5005185;28;96011;-75
2022/06/22 23:04:27;;;;;;;17.42;7.18;;;;;;;;;;5007613;28;97137;-75
2022/06/22 23:06:55;;;;;;;14.95;7.40;;;;;;;;;;4992090;28;97278;-74
2022/06/22 23:09:23;;;;;;;11.52;6.95;;;;;;;;;;4993321;28;95189;-75
2022/06/22 23:11:49;;;;;;;13.90;7.28;;;;;;;;;;5001450;28;96569;-74
2022/06/22 23:14:29;;;;;;;14.95;7.40;;;;;;;;;;4993286;28;97721;-73
2022/06/22 23:16:57;;;;;;;15.18;6.88;;;;;;;;;;4991547;28;95618;-74
2022/06/22 23:19:36;;;;;;;15.93;7.20;;;;;;;;;;4984053;28;96750;-74
2022/06/22 23:22:13;;;;;;;13.88;7.03;;;;;;;;;;5001127;28;96063;-74
2022/06/22 23:24:40;;;;;;;12.57;7.43;;;;;;;;;;4994001;28;96555;-72
2022/06/22 23:27:06;;;;;;;14.90;6.30;;;;;;;;;;4992427;28;97392;-73
2022/06/22 23:29:40;;;;;;;12.95;7.55;;;;;;;;;;4994569;28;95424;-73
2022/06/22 23:32:14;;;;;;;12.60;7.00;;;;;;;;;;5013041;28;95819;-74
2022/06/22 23:34:42;;;;;;;17.33;7.13;;;;;;;;;;5010704;28;96177;-73
2022/06/22 23:37:36;;;;;;;12.38;6.55;;;;;;;;;;5002604;28;95244;-73
2022/06/22 23:40:03;;;;;;;11.50;6.57;;;;;;;;;;4992830;28;98204;-74
2022/06/22 23:42:34;;;;;;;14.50;7.32;;;;;;;;;;5012518;28;96223;-74
2022/06/22 23:45:02;;;;;;;15.20;6.45;;;;;;;;;;5015984;28;95358;-74
2022/06/22 23:50:15;;;;;;;12.88;6.50;;;;;;;;;;4993611;28;96429;-74
2022/06/22 23:52:43;;;;;;;17.40;7.57;;;;;;;;;;4990325;28;95748;-74
2022/06/22 23:55:12;;;;;;;17.35;7.47;;;;;;;;;;4990574;28;96801;-75
2022/06/22 23:57:39;;;;;;;12.75;6.50;;;;;;;;;;4990796;28;95139;-74
